createdAt,value
2022-08-12T00:01:12.941Z,98429.94
2022-08-12T00:03:58.089Z,98432.19
2022-08-12T00:06:44.585Z,98426.78
2022-08-12T00:09:30.433Z,98415.75
2022-08-12T00:12:18.116Z,98431.53
2022-08-12T00:15:16.600Z,98431.88
2022-08-12T00:18:04.866Z,98441.88
2022-08-12T00:23:00.188Z,98441.72
2022-08-12T00:26:21.254Z,98432.66
2022-08-12T00:29:05.743Z,98418.28
2022-08-12T00:31:51.262Z,98428.63
2022-08-12T00:34:36.532Z,98425.78
2022-08-12T00:37:22.870Z,98429.31
2022-08-12T00:40:12.041Z,98431.19
2022-08-12T00:42:42.856Z,98440.97
2022-08-12T00:45:10.744Z,98433.09
2022-08-12T00:47:40.777Z,98434.97
2022-08-12T00:50:10.006Z,98445.16
2022-08-12T00:52:36.937Z,98434.25
2022-08-12T00:55:05.718Z,98441.28
2022-08-12T00:57:37.837Z,98445.06
2022-08-12T01:00:12.929Z,98437.41
2022-08-12T01:02:44.770Z,98444.69
2022-08-12T01:05:38.744Z,98432.47
2022-08-12T01:08:27.035Z,98439.59
2022-08-12T01:11:17.300Z,98439.47
2022-08-12T01:13:48.320Z,98441.19
2022-08-12T01:16:23.230Z,98431.31
2022-08-12T01:18:53.244Z,98435.88
2022-08-12T01:21:45.260Z,98422.84
2022-08-12T01:24:36.869Z,98415.56
2022-08-12T01:27:12.898Z,98423.44
2022-08-12T01:29:44.039Z,98421.56
2022-08-12T01:32:16.230Z,98413.00
2022-08-12T01:34:55.042Z,98410.63
2022-08-12T01:37:25.507Z,98413.53
2022-08-12T01:40:33.784Z,98410.72
2022-08-12T01:42:50.533Z,98418.44
2022-08-12T01:45:23.088Z,98403.75
2022-08-12T01:48:18.462Z,98407.72
2022-08-12T01:51:05.417Z,98406.75
2022-08-12T01:53:57.690Z,98415.59
2022-08-12T01:56:31.486Z,98410.81
2022-08-12T01:59:22.240Z,98402.34
2022-08-12T02:01:54.254Z,98406.66
2022-08-12T02:04:39.837Z,98396.56
2022-08-12T02:07:33.301Z,98389.38
2022-08-12T02:10:50.642Z,98393.13
2022-08-12T02:13:43.819Z,98393.78
2022-08-12T02:16:36.522Z,98384.28
2022-08-12T02:19:22.806Z,98403.56
2022-08-12T02:23:54.713Z,98396.88
2022-08-12T02:26:24.581Z,98389.13
2022-08-12T02:28:52.355Z,98396.78
2022-08-12T02:31:20.100Z,98389.06
2022-08-12T02:33:47.741Z,98402.09
2022-08-12T02:36:16.819Z,98399.19
2022-08-12T02:38:43.752Z,98404.47
2022-08-12T02:41:12.324Z,98397.66
2022-08-12T02:43:38.917Z,98401.31
2022-08-12T02:46:14.426Z,98402.97
2022-08-12T02:49:14.122Z,98401.91
2022-08-12T02:51:44.356Z,98391.72
2022-08-12T02:54:12.020Z,98396.28
2022-08-12T02:56:50.514Z,98384.91
2022-08-12T02:59:21.737Z,98389.47
2022-08-12T03:01:56.710Z,98386.16
2022-08-12T03:04:41.440Z,98394.25
2022-08-12T03:07:35.780Z,98393.91
2022-08-12T03:10:36.803Z,98396.22
2022-08-12T03:13:07.341Z,98386.44
2022-08-12T03:15:36.066Z,98388.25
2022-08-12T03:18:26.229Z,98399.13
2022-08-12T03:20:56.225Z,98381.81
2022-08-12T03:23:29.200Z,98408.53
2022-08-12T03:26:00.887Z,98414.63
2022-08-12T03:28:51.782Z,98409.75
2022-08-12T03:31:30.642Z,98408.19
2022-08-12T03:34:02.310Z,98419.06
2022-08-12T03:36:32.381Z,98422.41
2022-08-12T03:39:35.442Z,98428.06
2022-08-12T03:42:36.396Z,98417.09
2022-08-12T03:45:42.026Z,98414.38
2022-08-12T03:48:37.183Z,98420.59
2022-08-12T03:51:22.666Z,98415.22
2022-08-12T03:54:11.086Z,98418.28
2022-08-12T03:56:57.316Z,98409.97
2022-08-12T03:59:42.937Z,98411.41
2022-08-12T04:02:14.734Z,98419.50
2022-08-12T04:04:45.669Z,98415.72
2022-08-12T04:07:13.665Z,98415.66
2022-08-12T04:09:42.627Z,98421.44
2022-08-12T04:12:32.417Z,98414.56
2022-08-12T04:15:00.931Z,98413.44
2022-08-12T04:17:28.414Z,98408.53
2022-08-12T04:19:56.597Z,98426.94
2022-08-12T05:25:13.549Z,98414.66
2022-08-12T05:27:58.774Z,98411.78
2022-08-12T05:30:31.059Z,98425.88
2022-08-12T05:32:59.999Z,98417.97
2022-08-12T05:35:27.851Z,98425.97
2022-08-12T05:38:35.236Z,98417.34
2022-08-12T05:41:04.926Z,98429.56
2022-08-12T05:43:34.714Z,98424.56
2022-08-12T05:46:07.395Z,98419.66
2022-08-12T05:48:46.743Z,98413.22
2022-08-12T05:51:16.677Z,98410.31
2022-08-12T05:54:03.964Z,98411.09
2022-08-12T05:56:33.541Z,98425.16
2022-08-12T05:59:03.109Z,98422.66
2022-08-12T06:02:09.493Z,98417.09
2022-08-12T06:04:18.438Z,98419.59
2022-08-12T06:06:51.383Z,98423.84
2022-08-12T06:09:17.983Z,98420.00
2022-08-12T06:12:05.002Z,98419.47
2022-08-12T06:14:37.185Z,98421.28
2022-08-12T06:17:08.006Z,98420.56
2022-08-12T06:20:25.793Z,98421.06
2022-08-12T06:25:34.586Z,98417.19
2022-08-12T06:28:07.889Z,98414.53
2022-08-12T06:30:39.130Z,98408.00
2022-08-12T06:33:22.549Z,98408.63
2022-08-12T06:35:55.747Z,98414.13
2022-08-12T06:38:27.343Z,98405.91
2022-08-12T06:41:18.103Z,98407.59
2022-08-12T06:44:05.671Z,98416.78
2022-08-12T06:46:32.811Z,98411.97
2022-08-12T06:48:59.797Z,98419.00
2022-08-12T06:51:30.004Z,98418.06
2022-08-12T06:53:58.221Z,98423.44
2022-08-12T06:56:39.799Z,98420.72
2022-08-12T06:59:06.859Z,98413.97
2022-08-12T07:01:33.571Z,98417.31
2022-08-12T07:04:14.278Z,98416.25
2022-08-12T07:06:47.000Z,98420.84
2022-08-12T07:09:55.659Z,98424.44
2022-08-12T07:12:01.766Z,98425.75
2022-08-12T07:14:28.344Z,98430.97
2022-08-12T07:16:56.781Z,98422.19
2022-08-12T07:19:23.496Z,98430.88
2022-08-12T07:22:01.979Z,98421.41
2022-08-12T07:24:29.137Z,98425.84
2022-08-12T07:26:55.903Z,98437.28
2022-08-12T07:29:23.075Z,98430.94
2022-08-12T07:31:49.792Z,98418.22
2022-08-12T07:34:17.219Z,98429.09
2022-08-12T07:36:45.743Z,98425.78
2022-08-12T07:39:13.517Z,98420.53
2022-08-12T07:41:40.167Z,98413.72
2022-08-12T07:44:08.907Z,98409.13
2022-08-12T07:46:41.572Z,98413.97
2022-08-12T07:49:11.188Z,98415.59
2022-08-12T07:51:38.504Z,98402.81
2022-08-12T07:54:09.439Z,98417.28
2022-08-12T07:56:38.479Z,98421.88
2022-08-12T07:59:06.554Z,98438.72
2022-08-12T08:01:33.277Z,98424.50
2022-08-12T08:04:19.495Z,98425.03
2022-08-12T08:06:49.619Z,98425.53
2022-08-12T08:09:18.251Z,98435.66
2022-08-12T08:12:03.391Z,98423.41
2022-08-12T08:14:30.506Z,98433.28
2022-08-12T08:16:59.594Z,98432.22
2022-08-12T08:19:29.173Z,98438.69
2022-08-12T08:21:57.547Z,98441.97
2022-08-12T08:26:34.245Z,98445.41
2022-08-12T08:29:00.936Z,98455.19
2022-08-12T08:31:27.930Z,98446.72
2022-08-12T08:34:05.157Z,98452.41
2022-08-12T08:36:37.564Z,98442.75
2022-08-12T08:39:04.747Z,98447.94
2022-08-12T08:42:16.571Z,98440.34
2022-08-12T08:44:38.321Z,98431.56
2022-08-12T08:47:10.150Z,98427.06
2022-08-12T08:49:37.707Z,98431.53
2022-08-12T08:52:06.589Z,98414.31
2022-08-12T08:54:33.681Z,98416.50
2022-08-12T08:57:01.507Z,98408.59
2022-08-12T08:59:28.943Z,98424.78
2022-08-12T09:01:56.253Z,98422.75
2022-08-12T09:05:12.608Z,98432.22
2022-08-12T09:10:01.921Z,98434.59
2022-08-12T09:12:54.577Z,98427.78
2022-08-12T09:15:22.317Z,98426.16
2022-08-12T09:18:08.487Z,98435.66
2022-08-12T09:20:37.366Z,98431.59
2022-08-12T09:23:57.083Z,98440.09
2022-08-12T09:25:58.344Z,98441.72
2022-08-12T09:28:33.039Z,98445.69
2022-08-12T09:31:00.459Z,98442.91
2022-08-12T09:34:25.784Z,98441.97
2022-08-12T09:36:30.671Z,98452.16
2022-08-12T09:38:58.874Z,98448.84
2022-08-12T09:42:09.513Z,98441.78
2022-08-12T09:44:39.422Z,98437.00
2022-08-12T09:47:10.644Z,98435.34
2022-08-12T09:49:42.278Z,98436.72
2022-08-12T09:52:09.407Z,98433.69
2022-08-12T09:54:36.448Z,98440.50
2022-08-12T09:58:45.291Z,98420.28
2022-08-12T10:00:15.231Z,98426.38
2022-08-12T10:03:31.201Z,98425.69
2022-08-12T10:06:26.394Z,98417.75
2022-08-12T10:08:52.465Z,98426.28
2022-08-12T10:12:09.798Z,98418.31
2022-08-12T10:14:34.266Z,98430.81
2022-08-12T10:17:08.570Z,98429.75
2022-08-12T10:19:37.864Z,98425.63
2022-08-12T10:22:16.481Z,98426.97
2022-08-12T10:38:34.422Z,98420.75
2022-08-12T10:41:07.598Z,98416.00
2022-08-12T10:43:54.042Z,98413.13
2022-08-12T10:46:30.922Z,98417.47
2022-08-12T10:49:07.073Z,98420.16
2022-08-12T10:52:04.708Z,98418.25
2022-08-12T10:54:36.175Z,98411.75
2022-08-12T10:57:03.091Z,98412.59
2022-08-12T10:59:58.203Z,98406.78
2022-08-12T11:04:28.595Z,98406.13
2022-08-12T11:07:08.560Z,98399.50
2022-08-12T11:08:38.602Z,98412.19
2022-08-12T11:10:41.940Z,98410.28
2022-08-12T11:13:13.079Z,98404.47
2022-08-12T11:16:03.386Z,98401.94
2022-08-12T11:18:26.514Z,98401.78
2022-08-12T11:20:58.000Z,98395.44
2022-08-12T11:23:36.661Z,98382.88
2022-08-12T11:26:06.678Z,98379.69
2022-08-12T11:28:37.227Z,98389.56
2022-08-12T11:31:07.189Z,98386.34
2022-08-12T11:34:04.767Z,98387.88
2022-08-12T11:36:25.244Z,98382.31
2022-08-12T11:38:53.264Z,98384.56
2022-08-12T11:41:31.131Z,98387.53
2022-08-12T11:43:59.298Z,98381.84
2022-08-12T11:46:26.184Z,98386.06
2022-08-12T11:48:52.927Z,98373.78
2022-08-12T11:51:21.108Z,98375.59
2022-08-12T11:53:57.497Z,98369.84
2022-08-12T11:56:38.311Z,98373.78
2022-08-12T12:02:03.412Z,98373.50
2022-08-12T12:04:32.168Z,98375.56
2022-08-12T12:07:06.786Z,98364.19
2022-08-12T12:09:52.778Z,98377.31
2022-08-12T12:12:22.522Z,98360.25
2022-08-12T12:14:55.002Z,98368.19
2022-08-12T12:17:25.579Z,98363.66
2022-08-12T12:19:53.354Z,98368.56
2022-08-12T12:22:23.613Z,98356.94
2022-08-12T12:24:57.364Z,98352.38
2022-08-12T12:28:39.712Z,98348.03
2022-08-12T12:31:15.228Z,98351.00
2022-08-12T12:33:57.970Z,98355.16
2022-08-12T12:36:30.024Z,98346.97
2022-08-12T12:38:58.330Z,98351.47
2022-08-12T12:42:41.490Z,98353.06
2022-08-12T12:44:25.920Z,98347.88
2022-08-12T12:47:00.823Z,98347.31
2022-08-12T12:49:27.798Z,98342.38
2022-08-12T12:52:18.122Z,98345.47
2022-08-12T12:54:52.681Z,98347.16
2022-08-12T12:57:21.577Z,98343.34
2022-08-12T13:00:17.853Z,98340.31
2022-08-12T13:02:54.132Z,98334.94
2022-08-12T13:05:28.978Z,98343.19
2022-08-12T13:08:01.194Z,98341.91
2022-08-12T13:10:30.707Z,98348.78
2022-08-12T13:12:59.199Z,98338.97
2022-08-12T13:15:49.516Z,98335.00
2022-08-12T13:18:18.414Z,98353.88
2022-08-12T13:20:47.056Z,98354.19
2022-08-12T13:23:36.910Z,98351.78
2022-08-12T13:26:04.186Z,98353.50
2022-08-12T13:28:32.327Z,98347.78
2022-08-12T13:31:00.118Z,98348.59
2022-08-12T13:33:28.511Z,98344.91
2022-08-12T13:36:18.833Z,98343.06
2022-08-12T13:38:52.177Z,98344.63
2022-08-12T13:41:33.113Z,98341.47
2022-08-12T13:44:01.412Z,98338.44
2022-08-12T13:46:28.453Z,98335.28
2022-08-12T13:48:56.714Z,98337.09
2022-08-12T13:51:40.999Z,98338.41
2022-08-12T13:54:13.870Z,98327.66
2022-08-12T13:56:41.022Z,98328.88
2022-08-12T13:59:08.786Z,98327.16
2022-08-12T14:01:40.306Z,98328.94
2022-08-12T14:04:11.602Z,98321.44
2022-08-12T14:06:39.401Z,98309.88
2022-08-12T14:09:15.363Z,98312.50
2022-08-12T14:11:48.308Z,98310.03
2022-08-12T14:14:31.776Z,98302.19
2022-08-12T14:17:09.813Z,98307.63
2022-08-12T14:19:48.746Z,98305.84
2022-08-12T14:22:20.422Z,98296.66
2022-08-12T14:24:47.070Z,98300.56
2022-08-12T14:29:56.268Z,98312.13
2022-08-12T14:32:22.319Z,98309.28
2022-08-12T14:34:51.559Z,98301.44
2022-08-12T14:37:58.197Z,98301.66
2022-08-12T14:40:06.873Z,98295.59
2022-08-12T14:42:33.462Z,98299.59
2022-08-12T14:45:02.297Z,98302.88
2022-08-12T14:47:35.233Z,98299.09
2022-08-12T14:50:41.444Z,98307.97
2022-08-12T14:58:32.102Z,98295.00
2022-08-12T15:01:21.321Z,98293.69
2022-08-12T15:03:53.850Z,98294.44
2022-08-12T15:06:39.223Z,98299.09
2022-08-12T15:09:13.611Z,98299.06
2022-08-12T15:11:55.621Z,98301.47
2022-08-12T15:14:30.378Z,98300.38
2022-08-12T15:17:00.251Z,98294.47
2022-08-12T15:20:33.219Z,98295.78
2022-08-12T15:22:37.234Z,98293.56
2022-08-12T15:25:07.421Z,98298.22
2022-08-12T15:28:04.156Z,98292.72
2022-08-12T15:30:30.482Z,98293.72
2022-08-12T15:32:57.372Z,98296.97
2022-08-12T15:35:27.479Z,98287.69
2022-08-12T15:38:13.787Z,98285.00
2022-08-12T15:40:46.732Z,98285.31
2022-08-12T15:43:51.356Z,98288.41
2022-08-12T15:46:04.772Z,98278.63
2022-08-12T15:48:34.340Z,98273.84
2022-08-12T15:51:02.982Z,98275.94
2022-08-12T15:53:53.437Z,98271.72
2022-08-12T15:56:29.294Z,98276.66
2022-08-12T15:58:59.076Z,98271.63
2022-08-12T16:01:35.469Z,98271.91
2022-08-12T16:04:05.374Z,98266.00
2022-08-12T16:09:55.822Z,98269.78
2022-08-12T16:12:11.258Z,98281.88
2022-08-12T16:14:39.178Z,98274.34
2022-08-12T16:17:08.708Z,98279.78
2022-08-12T16:20:02.719Z,98271.47
2022-08-12T16:22:26.488Z,98272.16
2022-08-12T16:24:54.137Z,98265.56
2022-08-12T16:40:57.070Z,98262.22
2022-08-12T16:43:26.828Z,98257.41
2022-08-12T16:46:05.287Z,98257.19
2022-08-12T16:48:44.531Z,98243.63
2022-08-12T16:51:13.495Z,98248.75
2022-08-12T16:53:44.700Z,98242.25
2022-08-12T16:56:15.518Z,98237.59
2022-08-12T16:58:43.413Z,98227.72
2022-08-12T17:01:14.713Z,98230.94
2022-08-12T17:03:47.008Z,98230.44
2022-08-12T17:06:22.219Z,98229.69
2022-08-12T17:08:55.549Z,98229.22
2022-08-12T17:11:22.884Z,98226.53
2022-08-12T17:13:53.513Z,98235.66
2022-08-12T17:16:21.322Z,98230.69
2022-08-12T17:18:57.717Z,98228.81
2022-08-12T17:21:40.534Z,98228.91
2022-08-12T17:24:21.626Z,98240.53
2022-08-12T17:26:50.220Z,98236.72
2022-08-12T17:29:32.321Z,98230.47
2022-08-12T17:32:08.878Z,98225.91
2022-08-12T17:34:54.753Z,98230.63
2022-08-12T17:37:21.682Z,98226.88
2022-08-12T17:40:15.484Z,98235.09
2022-08-12T17:42:35.776Z,98227.25
2022-08-12T17:45:18.194Z,98234.91
2022-08-12T17:48:02.320Z,98233.31
2022-08-12T17:50:44.680Z,98230.91
2022-08-12T17:53:15.237Z,98226.03
2022-08-12T17:55:48.159Z,98226.56
2022-08-12T17:58:21.635Z,98229.34
2022-08-12T18:01:03.291Z,98223.38
2022-08-12T18:03:57.527Z,98228.84
2022-08-12T18:06:18.248Z,98230.78
2022-08-12T18:08:54.604Z,98237.88
2022-08-12T18:12:05.548Z,98242.84
2022-08-12T18:14:28.996Z,98236.31
2022-08-12T18:17:00.700Z,98235.50
2022-08-12T18:19:48.535Z,98227.06
2022-08-12T18:22:21.936Z,98235.81
2022-08-12T18:25:04.784Z,98226.00
2022-08-12T18:27:44.729Z,98233.63
2022-08-12T18:31:44.244Z,98232.00
2022-08-12T18:34:24.503Z,98226.28
2022-08-12T18:36:55.629Z,98225.19
2022-08-12T18:39:22.759Z,98222.44
2022-08-12T18:41:51.669Z,98222.16
2022-08-12T18:44:19.382Z,98221.91
2022-08-12T18:46:54.508Z,98215.63
2022-08-12T18:49:31.840Z,98230.88
2022-08-12T18:52:04.385Z,98225.44
2022-08-12T18:54:35.486Z,98228.19
2022-08-12T18:57:19.591Z,98225.44
2022-08-12T18:59:59.676Z,98229.00
2022-08-12T19:02:32.255Z,98234.16
2022-08-12T19:04:59.207Z,98227.88
2022-08-12T19:07:29.841Z,98225.44
2022-08-12T19:10:13.658Z,98217.53
2022-08-12T19:13:00.536Z,98229.22
2022-08-12T19:15:30.031Z,98226.50
2022-08-12T19:18:01.036Z,98224.84
2022-08-12T19:20:30.690Z,98230.88
2022-08-12T19:23:02.478Z,98238.50
2022-08-12T19:26:00.448Z,98223.22
2022-08-12T19:28:30.261Z,98225.41
2022-08-12T19:31:56.386Z,98231.44
2022-08-12T19:35:18.521Z,98227.59
2022-08-12T19:37:17.314Z,98221.38
2022-08-12T19:40:08.669Z,98216.72
2022-08-12T19:42:32.598Z,98214.00
2022-08-12T19:45:05.136Z,98212.34
2022-08-12T19:47:39.015Z,98202.81
2022-08-12T19:50:06.809Z,98208.81
2022-08-12T19:52:40.758Z,98212.38
2022-08-12T19:55:11.491Z,98208.28
2022-08-12T19:58:01.683Z,98191.91
2022-08-12T20:00:29.461Z,98200.09
2022-08-12T20:02:59.555Z,98189.47
2022-08-12T20:06:06.100Z,98192.19
2022-08-12T20:08:15.265Z,98191.38
2022-08-12T20:12:13.146Z,98191.09
2022-08-12T20:13:49.464Z,98189.75
2022-08-12T20:16:50.762Z,98192.72
2022-08-12T20:19:16.012Z,98191.63
2022-08-12T20:21:43.631Z,98187.28
2022-08-12T20:24:14.181Z,98185.63
2022-08-12T20:26:42.580Z,98182.34
2022-08-12T20:32:37.422Z,98186.47
2022-08-12T20:35:18.340Z,98196.00
2022-08-12T20:38:07.046Z,98190.53
2022-08-12T20:40:33.894Z,98191.63
2022-08-12T20:43:06.483Z,98191.06
2022-08-12T20:45:44.769Z,98199.25
2022-08-12T20:48:18.018Z,98199.53
2022-08-12T20:50:47.642Z,98206.34
2022-08-12T20:53:33.156Z,98209.06
2022-08-12T20:56:30.877Z,98208.84
2022-08-12T20:59:00.108Z,98191.34
2022-08-12T21:01:36.709Z,98194.63
2022-08-12T21:04:32.548Z,98195.72
2022-08-12T21:07:08.457Z,98195.16
2022-08-12T21:09:42.476Z,98199.25
2022-08-12T21:12:28.135Z,98188.91
2022-08-12T21:15:17.473Z,98185.34
2022-08-12T21:18:11.679Z,98190.81
2022-08-12T21:20:54.842Z,98184.25
2022-08-12T21:23:22.596Z,98191.88
2022-08-12T21:25:51.269Z,98197.06
2022-08-12T21:28:20.930Z,98192.97
2022-08-12T21:31:11.169Z,98195.13
2022-08-12T21:33:58.515Z,98193.81
2022-08-12T21:36:34.597Z,98191.63
2022-08-12T21:39:20.663Z,98189.16
2022-08-12T21:41:52.949Z,98191.88
2022-08-12T21:45:44.128Z,98192.16
2022-08-12T21:47:20.930Z,98190.78
2022-08-12T21:49:55.322Z,98188.88
2022-08-12T21:52:34.450Z,98199.00
2022-08-12T21:55:08.469Z,98181.53
2022-08-12T21:57:53.643Z,98181.81
2022-08-12T22:00:33.425Z,98180.44
2022-08-12T22:04:01.599Z,98174.75
2022-08-12T22:06:20.289Z,98172.53
2022-08-12T22:08:57.901Z,98181.25
2022-08-12T22:11:42.498Z,98171.72
2022-08-12T22:14:17.875Z,98178.53
2022-08-12T22:16:50.597Z,98172.28
2022-08-12T22:19:19.583Z,98168.44
2022-08-12T22:21:52.329Z,98171.16
2022-08-12T22:24:27.033Z,98164.38
2022-08-12T22:27:08.110Z,98173.63
2022-08-12T22:33:54.231Z,98155.38
2022-08-12T22:36:28.464Z,98168.19
2022-08-12T22:39:02.025Z,98157.81
2022-08-12T22:42:05.842Z,98149.91
2022-08-12T22:45:00.580Z,98150.47
2022-08-12T22:47:53.189Z,98148.28
2022-08-12T22:50:27.511Z,98147.44
2022-08-12T22:53:15.067Z,98149.09
2022-08-12T22:55:59.733Z,98138.47
2022-08-12T22:58:40.456Z,98139.84
2022-08-12T23:01:13.771Z,98138.19
2022-08-12T23:03:54.318Z,98131.94
2022-08-12T23:06:25.944Z,98127.31
2022-08-12T23:08:55.272Z,98126.22
2022-08-12T23:11:25.376Z,98123.50
2022-08-12T23:14:11.325Z,98119.13
2022-08-12T23:16:40.882Z,98115.56
2022-08-12T23:19:17.651Z,98111.50
2022-08-12T23:22:36.707Z,98106.59
2022-08-12T23:25:21.270Z,98109.03
2022-08-12T23:31:04.735Z,98107.94
2022-08-12T23:34:00.889Z,98101.69
2022-08-12T23:36:39.142Z,98102.22
2022-08-12T23:40:15.377Z,98087.22
2022-08-12T23:42:17.581Z,98097.03
2022-08-12T23:44:52.400Z,98095.69
2022-08-12T23:48:29.653Z,98088.84
2022-08-12T23:51:22.771Z,98077.97
2022-08-12T23:54:00.044Z,98080.69
2022-08-12T23:56:49.962Z,98084.53
2022-08-12T23:59:17.688Z,98069.78
